createdAt,value
2023-04-11T00:01:43.649Z,98518.09
2023-04-11T00:06:49.062Z,98498.19
2023-04-11T00:11:57.219Z,98496.13
2023-04-11T00:17:06.251Z,98479.97
2023-04-11T00:22:11.661Z,98474.84
2023-04-11T00:27:16.736Z,98463.25
2023-04-11T00:32:26.797Z,98444.91
2023-04-11T00:37:36.646Z,98443.66
2023-04-11T00:42:42.051Z,98433.91
2023-04-11T00:47:50.043Z,98433.63
2023-04-11T00:52:57.119Z,98415.41
2023-04-11T00:58:02.430Z,98411.47
2023-04-11T01:03:10.431Z,98408.94
2023-04-11T01:08:16.838Z,98406.59
2023-04-11T01:13:22.937Z,98391.41
2023-04-11T01:18:30.929Z,98409.38
2023-04-11T01:23:38.734Z,98397.34
2023-04-11T01:28:43.856Z,98387.38
2023-04-11T01:33:50.288Z,98402.56
2023-04-11T01:38:58.529Z,98403.78
2023-04-11T01:44:04.234Z,98398.16
2023-04-11T01:49:10.734Z,98396.78
2023-04-11T01:54:18.495Z,98396.91
2023-04-11T01:59:24.416Z,98382.91
2023-04-11T02:04:30.118Z,98351.75
2023-04-11T02:09:37.930Z,98325.44
2023-04-11T02:14:45.176Z,98329.00
2023-04-11T02:19:52.133Z,98308.84
2023-04-11T02:24:59.994Z,98290.22
2023-04-11T02:30:06.322Z,98277.88
2023-04-11T02:35:14.168Z,98252.22
2023-04-11T02:40:22.493Z,98248.31
2023-04-11T02:45:33.527Z,98231.88
2023-04-11T02:50:41.384Z,98214.06
2023-04-11T02:55:50.563Z,98209.69
2023-04-11T03:00:56.567Z,98205.63
2023-04-11T03:06:02.318Z,98204.81
2023-04-11T03:11:11.328Z,98210.00
2023-04-11T03:16:16.921Z,98210.94
2023-04-11T03:21:22.294Z,98211.13
2023-04-11T03:26:30.729Z,98197.63
2023-04-11T03:31:40.530Z,98203.59
2023-04-11T03:36:45.893Z,98189.81
2023-04-11T03:41:54.412Z,98192.94
2023-04-11T03:46:59.720Z,98184.19
2023-04-11T03:52:17.900Z,98180.91
2023-04-11T03:57:29.713Z,98169.00
2023-04-11T04:02:36.716Z,98174.50
2023-04-11T04:07:45.317Z,98169.16
2023-04-11T04:13:02.080Z,98161.66
2023-04-11T04:18:14.380Z,98148.38
2023-04-11T04:23:26.280Z,98158.69
2023-04-11T04:29:04.642Z,98153.66
2023-04-11T04:34:24.942Z,98140.50
2023-04-11T04:39:34.286Z,98137.09
2023-04-11T04:44:43.743Z,98147.91
2023-04-11T04:49:58.679Z,98152.91
2023-04-11T04:55:04.137Z,98156.47
2023-04-11T05:00:14.146Z,98160.38
2023-04-11T05:05:22.697Z,98150.78
2023-04-11T05:10:28.240Z,98170.53
2023-04-11T05:15:37.004Z,98169.69
2023-04-11T05:20:42.240Z,98157.00
2023-04-11T05:25:51.191Z,98143.78
2023-04-11T05:31:01.757Z,98133.81
2023-04-11T05:36:08.651Z,98135.03
2023-04-11T05:41:14.849Z,98124.44
2023-04-11T05:46:23.169Z,98101.19
2023-04-11T05:51:29.083Z,98109.34
2023-04-11T05:56:59.206Z,98111.25
2023-04-11T06:02:14.671Z,98106.38
2023-04-11T06:07:24.063Z,98108.78
2023-04-11T06:12:45.262Z,98094.78
2023-04-11T06:17:57.395Z,98106.59
2023-04-11T06:23:15.647Z,98090.06
2023-04-11T06:28:24.899Z,98104.56
2023-04-11T06:33:37.585Z,98104.31
2023-04-11T06:38:43.558Z,98113.38
2023-04-11T06:43:51.541Z,98099.06
2023-04-11T06:49:07.578Z,98106.97
2023-04-11T06:54:16.606Z,98110.13
2023-04-11T06:59:34.313Z,98116.91
2023-04-11T07:04:47.865Z,98130.47
2023-04-11T07:10:02.803Z,98140.91
2023-04-11T07:15:10.775Z,98163.81
2023-04-11T07:20:19.657Z,98168.03
2023-04-11T07:25:35.137Z,98170.13
2023-04-11T07:30:41.474Z,98163.16
2023-04-11T07:35:51.103Z,98168.25
2023-04-11T07:41:02.948Z,98160.44
2023-04-11T07:46:09.681Z,98158.94
2023-04-11T07:51:19.156Z,98153.28
2023-04-11T07:56:24.436Z,98177.13
2023-04-11T08:01:39.214Z,98165.66
2023-04-11T08:06:58.841Z,98157.00
2023-04-11T08:12:15.152Z,98161.06
2023-04-11T08:17:28.302Z,98158.47
2023-04-11T08:22:45.255Z,98146.97
2023-04-11T08:27:51.714Z,98148.81
2023-04-11T08:32:58.228Z,98164.06
2023-04-11T08:38:09.334Z,98150.97
2023-04-11T08:43:20.738Z,98140.16
2023-04-11T08:48:28.101Z,98143.72
2023-04-11T08:53:54.471Z,98143.50
2023-04-11T08:59:07.295Z,98140.16
2023-04-11T09:04:27.615Z,98159.06
2023-04-11T09:09:51.838Z,98175.84
2023-04-11T09:14:57.556Z,98182.88
2023-04-11T09:20:19.308Z,98176.44
2023-04-11T09:25:35.375Z,98171.41
2023-04-11T09:30:52.901Z,98174.81
2023-04-11T09:36:04.437Z,98170.75
2023-04-11T09:41:15.403Z,98167.47
2023-04-11T09:46:28.447Z,98149.97
2023-04-11T09:51:37.024Z,98145.69
2023-04-11T09:56:46.289Z,98124.28
2023-04-11T10:02:04.093Z,98124.38
2023-04-11T10:07:17.306Z,98131.78
2023-04-11T10:12:37.737Z,98127.34
2023-04-11T10:17:48.280Z,98126.31
2023-04-11T10:23:04.384Z,98123.28
2023-04-11T10:28:32.314Z,98124.44
2023-04-11T10:33:39.039Z,98111.13
2023-04-11T10:38:53.072Z,98120.59
2023-04-11T10:44:25.464Z,98123.78
2023-04-11T10:49:39.062Z,98111.47
2023-04-11T10:54:45.699Z,98103.50
2023-04-11T11:00:19.324Z,98113.59
2023-04-11T11:05:27.188Z,98113.38
2023-04-11T11:10:50.434Z,98194.03
2023-04-11T11:16:06.769Z,98237.03
2023-04-11T11:21:26.526Z,98236.19
2023-04-11T11:26:43.942Z,98225.72
2023-04-11T11:31:53.918Z,98203.59
2023-04-11T11:37:05.293Z,98154.81
2023-04-11T11:42:13.211Z,98188.72
2023-04-11T11:47:23.307Z,98237.09
2023-04-11T11:52:37.975Z,98266.72
2023-04-11T11:57:50.114Z,98282.44
2023-04-11T12:03:03.310Z,98295.59
2023-04-11T12:08:10.929Z,98267.28
2023-04-11T12:13:30.341Z,98251.53
2023-04-11T12:18:38.625Z,98260.13
2023-04-11T12:23:44.571Z,98252.94
2023-04-11T12:28:51.059Z,98248.84
2023-04-11T12:33:59.262Z,98247.69
2023-04-11T12:39:04.664Z,98264.66
2023-04-11T12:44:13.741Z,98261.94
2023-04-11T12:49:22.713Z,98247.56
2023-04-11T12:54:29.775Z,98247.94
2023-04-11T12:59:36.079Z,98244.84
2023-04-11T13:04:56.249Z,98242.13
2023-04-11T13:10:02.024Z,98233.63
2023-04-11T13:15:19.842Z,98235.03
2023-04-11T13:20:33.817Z,98229.06
2023-04-11T13:25:39.275Z,98227.78
2023-04-11T13:30:46.325Z,98225.03
2023-04-11T13:36:01.988Z,98233.16
2023-04-11T13:41:13.790Z,98237.88
2023-04-11T13:46:23.523Z,98236.75
2023-04-11T13:51:33.563Z,98294.88
2023-04-11T13:56:39.126Z,98274.06
2023-04-11T14:01:52.302Z,98272.47
2023-04-11T14:07:02.222Z,98267.88
2023-04-11T14:12:07.881Z,98287.50
2023-04-11T14:17:14.042Z,98262.38
2023-04-11T14:22:27.944Z,98274.97
2023-04-11T14:27:34.928Z,98282.69
2023-04-11T14:32:40.289Z,98287.59
2023-04-11T14:37:52.482Z,98282.25
2023-04-11T14:42:59.388Z,98277.97
2023-04-11T14:48:15.172Z,98294.25
2023-04-11T14:53:25.795Z,98315.00
2023-04-11T14:58:33.862Z,98329.44
2023-04-11T15:03:39.292Z,98332.09
2023-04-11T15:08:52.653Z,98325.88
2023-04-11T15:14:03.709Z,98315.97
2023-04-11T15:19:11.465Z,98318.59
2023-04-11T15:24:22.578Z,98328.34
2023-04-11T15:29:27.956Z,98329.59
2023-04-11T15:34:40.558Z,98328.06
2023-04-11T15:39:54.102Z,98314.00
2023-04-11T15:45:04.128Z,98328.97
2023-04-11T15:50:13.718Z,98329.53
2023-04-11T15:55:23.802Z,98329.59
2023-04-11T16:00:29.661Z,98318.91
2023-04-11T16:05:42.013Z,98318.47
2023-04-11T16:10:52.095Z,98322.63
2023-04-11T16:16:02.163Z,98336.34
2023-04-11T16:21:16.058Z,98325.66
2023-04-11T16:26:24.742Z,98326.44
2023-04-11T16:31:30.038Z,98347.25
2023-04-11T16:36:35.746Z,98361.50
2023-04-11T16:41:45.942Z,98369.25
2023-04-11T16:46:52.861Z,98377.50
2023-04-11T16:51:58.357Z,98368.97
2023-04-11T16:57:09.058Z,98342.25
2023-04-11T17:02:14.740Z,98336.44
2023-04-11T17:07:20.421Z,98340.19
2023-04-11T17:12:34.678Z,98333.69
2023-04-11T17:17:40.416Z,98349.94
2023-04-11T17:22:47.519Z,98349.19
2023-04-11T17:27:57.434Z,98349.00
2023-04-11T17:33:04.966Z,98351.09
2023-04-11T17:38:10.895Z,98355.25
2023-04-11T17:43:19.251Z,98352.28
2023-04-11T17:48:25.596Z,98360.56
2023-04-11T17:53:31.242Z,98367.50
2023-04-11T17:58:45.299Z,98370.91
2023-04-11T18:03:52.897Z,98379.91
2023-04-11T18:09:04.693Z,98387.22
2023-04-11T18:14:12.741Z,98403.69
2023-04-11T18:19:18.242Z,98408.75
2023-04-11T18:24:23.879Z,98433.84
2023-04-11T18:29:32.762Z,98467.75
2023-04-11T18:34:38.693Z,98489.97
2023-04-11T18:39:44.406Z,98472.66
2023-04-11T18:44:59.500Z,98483.16
2023-04-11T18:50:06.105Z,98502.88
2023-04-11T18:55:13.922Z,98510.06
2023-04-11T19:00:25.726Z,98513.56
2023-04-11T19:05:36.874Z,98536.34
2023-04-11T19:10:43.681Z,98560.47
2023-04-11T19:15:54.441Z,98561.34
2023-04-11T19:21:08.223Z,98576.44
2023-04-11T19:26:14.225Z,98561.06
2023-04-11T19:31:29.223Z,98561.75
2023-04-11T19:36:41.038Z,98553.53
2023-04-11T19:41:57.118Z,98529.22
2023-04-11T19:47:15.763Z,98519.88
2023-04-11T19:52:32.731Z,98520.25
2023-04-11T19:57:44.091Z,98511.25
2023-04-11T20:02:55.273Z,98518.16
2023-04-11T20:08:12.493Z,98519.88
2023-04-11T20:13:21.817Z,98506.44
2023-04-11T20:18:30.795Z,98497.69
2023-04-11T20:23:42.220Z,98493.75
2023-04-11T20:28:52.976Z,98477.00
2023-04-11T20:34:02.895Z,98494.78
2023-04-11T20:39:09.441Z,98491.59
2023-04-11T20:44:24.113Z,98493.78
2023-04-11T20:49:34.892Z,98503.22
2023-04-11T20:54:43.124Z,98499.88
2023-04-11T20:59:52.994Z,98509.66
2023-04-11T21:05:03.788Z,98501.22
2023-04-11T21:10:10.959Z,98502.72
2023-04-11T21:15:17.464Z,98499.53
2023-04-11T21:20:37.597Z,98500.94
2023-04-11T21:25:43.953Z,98503.59
2023-04-11T21:30:49.414Z,98491.56
2023-04-11T21:36:03.540Z,98502.78
2023-04-11T21:41:09.458Z,98493.66
2023-04-11T21:46:15.873Z,98506.44
2023-04-11T21:51:25.248Z,98510.88
2023-04-11T21:56:33.607Z,98503.19
2023-04-11T22:01:39.192Z,98500.59
2023-04-11T22:06:49.479Z,98505.03
2023-04-11T22:11:55.187Z,98508.72
2023-04-11T22:17:01.314Z,98509.59
2023-04-11T22:22:11.717Z,98512.47
2023-04-11T22:27:19.777Z,98518.13
2023-04-11T22:32:26.925Z,98530.78
2023-04-11T22:37:37.709Z,98530.81
2023-04-11T22:42:48.390Z,98530.31
2023-04-11T22:47:57.452Z,98525.31
2023-04-11T22:53:05.882Z,98523.00
2023-04-11T22:58:11.592Z,98517.22
2023-04-11T23:03:23.440Z,98510.91
2023-04-11T23:08:34.126Z,98507.75
2023-04-11T23:13:47.458Z,98508.56
2023-04-11T23:18:52.837Z,98513.84
2023-04-11T23:24:03.420Z,98509.88
2023-04-11T23:29:12.138Z,98483.81
2023-04-11T23:34:17.810Z,98506.22
2023-04-11T23:39:31.481Z,98503.53
2023-04-11T23:44:41.703Z,98493.03
2023-04-11T23:50:18.471Z,98492.22
2023-04-11T23:55:33.253Z,98473.56
